Main page
METAR-TAF:

METAR-TAF

Airports :

Nouakchott, Mauritania

Nouakchott–Oumtounsy International Airport

latitude: 18-18-36N, longitude: 015-58-11W, elevation: 3 m

Current weather observation

The report was made 43 minutes ago, at 01:30 UTC
Wind 4 kt from the South
Temperature 27°C
Humidity 89%
Pressure 1009 hPa
Visibility: 6000 m
widespread dust

METAR: GQNO 200130Z 18004KT 6000 DU NSC 27/25 Q1009 NOSIG

Time: 02:13 (02:13 UTC)

Forecast

The report was made 3 hours and 13 minutes ago, at 23:00 UTC
Forecast valid from 20 at 00 UTC to 21 at 06 UTC
Wind 8 kt from the West/Southwest
Visibility: 6000 m
Probability 40% :
Temporary
from 20 at 02 UTC to 20 at 08 UTC
Visibility: 4000 m
Broken clouds at a height of 1000 ft
mist

TAF: GQNO 192300Z 2000/2106 25008KT 6000 NSC PROB40 TEMPO 2002/2008 4000 BR BKN010

Weather observations and forecasts of more than 4000 airports (METAR and TAF reports).

The available stations are represented by yellow and red dots on the map.

Hover mouse over dot to see the name of the station.

Then click to see weather observations and forecasts.

To change the map : click on the green buttons with a black cross to zoom in, on the green button with a dash to zoom out, or on the green arrows for adjacent maps.


METAR-TAF: